sensor_id;sensor_type;location;lat;lon;timestamp;P1;durP1;ratioP1;P2;durP2;ratioP2
142;SDS011;63667;49.046;8.468;2023-04-29T00:01:11;14.73;;;8.10;;
142;SDS011;63667;49.046;8.468;2023-04-29T00:03:39;20.00;;;9.30;;
142;SDS011;63667;49.046;8.468;2023-04-29T00:06:06;12.73;;;8.53;;
142;SDS011;63667;49.046;8.468;2023-04-29T00:08:32;14.20;;;8.53;;
142;SDS011;63667;49.046;8.468;2023-04-29T00:10:59;16.23;;;8.60;;
142;SDS011;63667;49.046;8.468;2023-04-29T00:13:26;12.00;;;8.47;;
142;SDS011;63667;49.046;8.468;2023-04-29T00:15:53;14.57;;;8.73;;
142;SDS011;63667;49.046;8.468;2023-04-29T00:18:20;14.63;;;8.47;;
142;SDS011;63667;49.046;8.468;2023-04-29T00:20:48;14.63;;;8.80;;
142;SDS011;63667;49.046;8.468;2023-04-29T00:23:14;14.30;;;8.73;;
142;SDS011;63667;49.046;8.468;2023-04-29T00:25:42;15.20;;;8.70;;
142;SDS011;63667;49.046;8.468;2023-04-29T00:28:09;11.30;;;8.13;;
142;SDS011;63667;49.046;8.468;2023-04-29T00:30:35;15.33;;;8.40;;
142;SDS011;63667;49.046;8.468;2023-04-29T00:33:03;13.90;;;8.90;;
142;SDS011;63667;49.046;8.468;2023-04-29T00:35:31;14.93;;;8.73;;
142;SDS011;63667;49.046;8.468;2023-04-29T00:37:59;13.20;;;8.20;;
142;SDS011;63667;49.046;8.468;2023-04-29T00:40:27;15.00;;;9.37;;
142;SDS011;63667;49.046;8.468;2023-04-29T00:42:55;16.53;;;8.33;;
142;SDS011;63667;49.046;8.468;2023-04-29T00:45:22;16.80;;;10.00;;
142;SDS011;63667;49.046;8.468;2023-04-29T00:47:49;12.27;;;8.73;;
142;SDS011;63667;49.046;8.468;2023-04-29T00:50:16;15.07;;;9.63;;
142;SDS011;63667;49.046;8.468;2023-04-29T00:52:48;24.53;;;10.10;;
142;SDS011;63667;49.046;8.468;2023-04-29T00:55:17;23.73;;;10.73;;
142;SDS011;63667;49.046;8.468;2023-04-29T00:57:46;20.03;;;10.30;;
142;SDS011;63667;49.046;8.468;2023-04-29T01:00:14;17.07;;;11.43;;
142;SDS011;63667;49.046;8.468;2023-04-29T01:02:42;16.10;;;10.27;;
142;SDS011;63667;49.046;8.468;2023-04-29T01:05:15;19.17;;;10.83;;
142;SDS011;63667;49.046;8.468;2023-04-29T01:10:43;18.83;;;10.97;;
142;SDS011;63667;49.046;8.468;2023-04-29T01:13:58;16.93;;;9.97;;
142;SDS011;63667;49.046;8.468;2023-04-29T01:16:46;20.57;;;10.40;;
142;SDS011;63667;49.046;8.468;2023-04-29T01:19:38;20.23;;;10.57;;
142;SDS011;63667;49.046;8.468;2023-04-29T01:22:11;16.00;;;10.13;;
142;SDS011;63667;49.046;8.468;2023-04-29T01:24:39;19.00;;;10.00;;
142;SDS011;63667;49.046;8.468;2023-04-29T01:29:56;22.40;;;10.10;;
142;SDS011;63667;49.046;8.468;2023-04-29T01:37:51;19.33;;;10.53;;
142;SDS011;63667;49.046;8.468;2023-04-29T01:40:25;17.13;;;10.73;;
142;SDS011;63667;49.046;8.468;2023-04-29T01:45:26;21.87;;;10.10;;
142;SDS011;63667;49.046;8.468;2023-04-29T01:47:53;23.50;;;11.10;;
142;SDS011;63667;49.046;8.468;2023-04-29T01:50:21;24.73;;;10.83;;
142;SDS011;63667;49.046;8.468;2023-04-29T01:52:49;18.70;;;10.07;;
142;SDS011;63667;49.046;8.468;2023-04-29T01:55:17;24.10;;;11.40;;
142;SDS011;63667;49.046;8.468;2023-04-29T01:57:46;21.73;;;10.20;;
142;SDS011;63667;49.046;8.468;2023-04-29T02:00:14;21.47;;;11.40;;
142;SDS011;63667;49.046;8.468;2023-04-29T02:02:42;28.67;;;12.00;;
142;SDS011;63667;49.046;8.468;2023-04-29T02:05:09;24.37;;;11.10;;
142;SDS011;63667;49.046;8.468;2023-04-29T02:07:36;19.40;;;10.70;;
142;SDS011;63667;49.046;8.468;2023-04-29T02:10:03;17.90;;;10.47;;
142;SDS011;63667;49.046;8.468;2023-04-29T02:12:33;19.70;;;10.37;;
142;SDS011;63667;49.046;8.468;2023-04-29T02:15:01;18.53;;;11.20;;
142;SDS011;63667;49.046;8.468;2023-04-29T02:17:29;20.93;;;10.97;;
142;SDS011;63667;49.046;8.468;2023-04-29T02:19:57;20.47;;;10.73;;
142;SDS011;63667;49.046;8.468;2023-04-29T02:22:26;19.97;;;11.33;;
142;SDS011;63667;49.046;8.468;2023-04-29T02:24:53;20.23;;;11.50;;
142;SDS011;63667;49.046;8.468;2023-04-29T02:27:21;21.47;;;11.67;;
142;SDS011;63667;49.046;8.468;2023-04-29T02:29:48;22.83;;;11.27;;
142;SDS011;63667;49.046;8.468;2023-04-29T02:32:16;19.90;;;10.83;;
142;SDS011;63667;49.046;8.468;2023-04-29T02:34:45;20.77;;;11.70;;
142;SDS011;63667;49.046;8.468;2023-04-29T02:37:12;21.70;;;11.60;;
142;SDS011;63667;49.046;8.468;2023-04-29T02:39:40;21.17;;;11.13;;
142;SDS011;63667;49.046;8.468;2023-04-29T02:42:08;20.37;;;11.37;;
142;SDS011;63667;49.046;8.468;2023-04-29T02:44:35;19.83;;;11.40;;
142;SDS011;63667;49.046;8.468;2023-04-29T02:47:02;21.60;;;11.60;;
142;SDS011;63667;49.046;8.468;2023-04-29T02:49:30;20.27;;;11.57;;
142;SDS011;63667;49.046;8.468;2023-04-29T02:51:58;18.90;;;11.17;;
142;SDS011;63667;49.046;8.468;2023-04-29T02:54:25;23.33;;;11.63;;
142;SDS011;63667;49.046;8.468;2023-04-29T02:56:53;23.87;;;11.57;;
142;SDS011;63667;49.046;8.468;2023-04-29T02:59:20;18.87;;;10.60;;
142;SDS011;63667;49.046;8.468;2023-04-29T03:01:48;19.30;;;11.10;;
142;SDS011;63667;49.046;8.468;2023-04-29T03:04:15;36.10;;;11.27;;
142;SDS011;63667;49.046;8.468;2023-04-29T03:06:46;29.57;;;11.80;;
142;SDS011;63667;49.046;8.468;2023-04-29T03:09:14;18.50;;;10.83;;
142;SDS011;63667;49.046;8.468;2023-04-29T03:11:40;21.90;;;10.20;;
142;SDS011;63667;49.046;8.468;2023-04-29T03:14:07;22.27;;;10.93;;
142;SDS011;63667;49.046;8.468;2023-04-29T03:16:35;20.70;;;10.00;;
142;SDS011;63667;49.046;8.468;2023-04-29T03:19:03;22.60;;;10.60;;
142;SDS011;63667;49.046;8.468;2023-04-29T03:21:31;18.73;;;11.13;;
142;SDS011;63667;49.046;8.468;2023-04-29T03:23:59;18.20;;;9.17;;
142;SDS011;63667;49.046;8.468;2023-04-29T03:26:28;16.70;;;8.83;;
142;SDS011;63667;49.046;8.468;2023-04-29T03:28:55;19.23;;;10.40;;
142;SDS011;63667;49.046;8.468;2023-04-29T03:31:24;17.90;;;8.73;;
142;SDS011;63667;49.046;8.468;2023-04-29T03:33:52;17.70;;;9.43;;
142;SDS011;63667;49.046;8.468;2023-04-29T03:36:19;15.30;;;8.70;;
142;SDS011;63667;49.046;8.468;2023-04-29T03:38:47;13.80;;;8.47;;
142;SDS011;63667;49.046;8.468;2023-04-29T03:41:14;14.17;;;9.20;;
142;SDS011;63667;49.046;8.468;2023-04-29T03:43:42;11.90;;;7.93;;
142;SDS011;63667;49.046;8.468;2023-04-29T03:46:10;13.13;;;7.90;;
142;SDS011;63667;49.046;8.468;2023-04-29T03:48:37;12.50;;;7.80;;
142;SDS011;63667;49.046;8.468;2023-04-29T03:51:05;13.47;;;8.17;;
142;SDS011;63667;49.046;8.468;2023-04-29T03:53:34;13.10;;;7.53;;
142;SDS011;63667;49.046;8.468;2023-04-29T03:56:02;14.20;;;7.90;;
142;SDS011;63667;49.046;8.468;2023-04-29T03:58:31;12.10;;;7.70;;
142;SDS011;63667;49.046;8.468;2023-04-29T04:01:02;11.57;;;8.00;;
142;SDS011;63667;49.046;8.468;2023-04-29T04:03:30;12.17;;;7.40;;
142;SDS011;63667;49.046;8.468;2023-04-29T04:05:57;11.00;;;7.30;;
142;SDS011;63667;49.046;8.468;2023-04-29T04:08:26;13.30;;;7.00;;
142;SDS011;63667;49.046;8.468;2023-04-29T04:10:53;10.30;;;6.63;;
142;SDS011;63667;49.046;8.468;2023-04-29T04:13:30;13.03;;;7.53;;
142;SDS011;63667;49.046;8.468;2023-04-29T04:15:58;10.30;;;6.30;;
142;SDS011;63667;49.046;8.468;2023-04-29T04:18:27;13.80;;;7.03;;
142;SDS011;63667;49.046;8.468;2023-04-29T04:20:53;11.27;;;7.03;;
142;SDS011;63667;49.046;8.468;2023-04-29T04:23:21;13.63;;;7.03;;
142;SDS011;63667;49.046;8.468;2023-04-29T04:25:49;12.20;;;7.30;;
142;SDS011;63667;49.046;8.468;2023-04-29T04:28:18;11.10;;;7.30;;
142;SDS011;63667;49.046;8.468;2023-04-29T04:30:46;16.67;;;7.43;;
142;SDS011;63667;49.046;8.468;2023-04-29T04:33:14;10.90;;;7.83;;
142;SDS011;63667;49.046;8.468;2023-04-29T04:35:41;13.73;;;8.07;;
142;SDS011;63667;49.046;8.468;2023-04-29T04:38:09;10.40;;;7.20;;
142;SDS011;63667;49.046;8.468;2023-04-29T04:40:39;10.80;;;7.40;;
142;SDS011;63667;49.046;8.468;2023-04-29T04:43:07;22.30;;;7.30;;
142;SDS011;63667;49.046;8.468;2023-04-29T04:45:35;10.90;;;6.90;;
142;SDS011;63667;49.046;8.468;2023-04-29T04:48:03;11.97;;;6.80;;
142;SDS011;63667;49.046;8.468;2023-04-29T04:50:35;9.27;;;6.40;;
142;SDS011;63667;49.046;8.468;2023-04-29T04:53:03;10.43;;;6.67;;
142;SDS011;63667;49.046;8.468;2023-04-29T04:55:29;9.87;;;6.37;;
142;SDS011;63667;49.046;8.468;2023-04-29T04:57:56;11.93;;;6.53;;
142;SDS011;63667;49.046;8.468;2023-04-29T05:00:25;9.70;;;6.33;;
142;SDS011;63667;49.046;8.468;2023-04-29T05:02:52;11.10;;;6.87;;
142;SDS011;63667;49.046;8.468;2023-04-29T05:05:19;12.47;;;6.83;;
142;SDS011;63667;49.046;8.468;2023-04-29T05:07:47;7.87;;;6.27;;
142;SDS011;63667;49.046;8.468;2023-04-29T05:10:14;16.23;;;6.27;;
142;SDS011;63667;49.046;8.468;2023-04-29T05:12:42;9.83;;;6.70;;
142;SDS011;63667;49.046;8.468;2023-04-29T05:15:10;9.97;;;7.00;;
142;SDS011;63667;49.046;8.468;2023-04-29T05:17:40;12.17;;;6.47;;
142;SDS011;63667;49.046;8.468;2023-04-29T05:20:08;8.40;;;6.00;;
142;SDS011;63667;49.046;8.468;2023-04-29T05:22:37;10.80;;;6.30;;
142;SDS011;63667;49.046;8.468;2023-04-29T05:25:05;8.97;;;6.77;;
142;SDS011;63667;49.046;8.468;2023-04-29T05:27:35;16.73;;;6.37;;
142;SDS011;63667;49.046;8.468;2023-04-29T05:30:03;10.47;;;5.80;;
142;SDS011;63667;49.046;8.468;2023-04-29T05:32:33;10.00;;;6.17;;
142;SDS011;63667;49.046;8.468;2023-04-29T05:35:01;6.93;;;5.40;;
142;SDS011;63667;49.046;8.468;2023-04-29T05:37:29;18.20;;;5.80;;
142;SDS011;63667;49.046;8.468;2023-04-29T05:39:56;7.07;;;4.90;;
142;SDS011;63667;49.046;8.468;2023-04-29T05:42:22;6.60;;;5.43;;
142;SDS011;63667;49.046;8.468;2023-04-29T05:44:49;7.87;;;5.20;;
142;SDS011;63667;49.046;8.468;2023-04-29T05:47:16;10.40;;;5.13;;
142;SDS011;63667;49.046;8.468;2023-04-29T05:49:44;7.23;;;5.20;;
142;SDS011;63667;49.046;8.468;2023-04-29T05:52:10;8.23;;;4.67;;
142;SDS011;63667;49.046;8.468;2023-04-29T05:54:37;6.70;;;4.90;;
142;SDS011;63667;49.046;8.468;2023-04-29T05:57:03;6.27;;;4.80;;
142;SDS011;63667;49.046;8.468;2023-04-29T05:59:30;11.70;;;4.57;;
142;SDS011;63667;49.046;8.468;2023-04-29T06:01:57;7.37;;;4.23;;
142;SDS011;63667;49.046;8.468;2023-04-29T06:04:24;5.93;;;4.67;;
142;SDS011;63667;49.046;8.468;2023-04-29T06:06:51;6.17;;;4.63;;
142;SDS011;63667;49.046;8.468;2023-04-29T06:09:18;10.57;;;4.70;;
142;SDS011;63667;49.046;8.468;2023-04-29T06:11:46;9.47;;;4.63;;
142;SDS011;63667;49.046;8.468;2023-04-29T06:14:13;6.70;;;4.87;;
142;SDS011;63667;49.046;8.468;2023-04-29T06:16:40;8.17;;;4.30;;
142;SDS011;63667;49.046;8.468;2023-04-29T06:19:08;8.40;;;5.07;;
142;SDS011;63667;49.046;8.468;2023-04-29T06:21:35;11.70;;;5.40;;
142;SDS011;63667;49.046;8.468;2023-04-29T06:24:02;8.13;;;4.33;;
142;SDS011;63667;49.046;8.468;2023-04-29T06:26:30;5.87;;;4.50;;
142;SDS011;63667;49.046;8.468;2023-04-29T06:28:57;5.70;;;4.57;;
142;SDS011;63667;49.046;8.468;2023-04-29T06:31:25;9.90;;;5.07;;
142;SDS011;63667;49.046;8.468;2023-04-29T06:33:52;5.77;;;4.90;;
142;SDS011;63667;49.046;8.468;2023-04-29T06:36:19;8.53;;;4.67;;
142;SDS011;63667;49.046;8.468;2023-04-29T06:38:47;7.30;;;5.13;;
142;SDS011;63667;49.046;8.468;2023-04-29T06:41:14;5.63;;;4.13;;
142;SDS011;63667;49.046;8.468;2023-04-29T06:43:40;7.37;;;5.13;;
142;SDS011;63667;49.046;8.468;2023-04-29T06:46:08;6.93;;;4.50;;
142;SDS011;63667;49.046;8.468;2023-04-29T06:48:34;6.83;;;5.03;;
142;SDS011;63667;49.046;8.468;2023-04-29T06:51:01;7.10;;;5.17;;
142;SDS011;63667;49.046;8.468;2023-04-29T06:53:28;5.90;;;4.83;;
142;SDS011;63667;49.046;8.468;2023-04-29T06:55:54;5.27;;;4.40;;
142;SDS011;63667;49.046;8.468;2023-04-29T06:58:21;6.40;;;5.10;;
142;SDS011;63667;49.046;8.468;2023-04-29T07:00:49;7.40;;;5.07;;
142;SDS011;63667;49.046;8.468;2023-04-29T07:03:16;7.83;;;4.80;;
142;SDS011;63667;49.046;8.468;2023-04-29T07:05:43;6.53;;;4.47;;
142;SDS011;63667;49.046;8.468;2023-04-29T07:08:11;5.57;;;4.90;;
142;SDS011;63667;49.046;8.468;2023-04-29T07:10:38;6.83;;;4.80;;
142;SDS011;63667;49.046;8.468;2023-04-29T07:13:06;9.90;;;5.13;;
142;SDS011;63667;49.046;8.468;2023-04-29T07:15:33;10.07;;;5.43;;
142;SDS011;63667;49.046;8.468;2023-04-29T07:18:04;8.13;;;5.50;;
142;SDS011;63667;49.046;8.468;2023-04-29T07:20:31;9.80;;;5.17;;
142;SDS011;63667;49.046;8.468;2023-04-29T07:22:58;8.30;;;5.10;;
142;SDS011;63667;49.046;8.468;2023-04-29T07:25:26;9.03;;;5.57;;
142;SDS011;63667;49.046;8.468;2023-04-29T07:27:56;8.83;;;4.73;;
142;SDS011;63667;49.046;8.468;2023-04-29T07:30:24;7.90;;;5.20;;
142;SDS011;63667;49.046;8.468;2023-04-29T07:32:50;5.80;;;5.10;;
142;SDS011;63667;49.046;8.468;2023-04-29T07:35:17;6.80;;;5.20;;
142;SDS011;63667;49.046;8.468;2023-04-29T07:37:44;6.27;;;5.13;;
142;SDS011;63667;49.046;8.468;2023-04-29T07:40:12;6.27;;;5.37;;
142;SDS011;63667;49.046;8.468;2023-04-29T07:42:39;6.57;;;5.00;;
142;SDS011;63667;49.046;8.468;2023-04-29T07:45:06;7.83;;;5.10;;
142;SDS011;63667;49.046;8.468;2023-04-29T07:47:34;7.67;;;4.60;;
142;SDS011;63667;49.046;8.468;2023-04-29T07:50:01;6.60;;;5.07;;
142;SDS011;63667;49.046;8.468;2023-04-29T07:52:30;10.23;;;4.50;;
142;SDS011;63667;49.046;8.468;2023-04-29T07:54:57;7.57;;;5.07;;
142;SDS011;63667;49.046;8.468;2023-04-29T07:57:25;6.70;;;4.73;;
142;SDS011;63667;49.046;8.468;2023-04-29T07:59:53;9.90;;;4.80;;
142;SDS011;63667;49.046;8.468;2023-04-29T08:02:21;5.50;;;4.60;;
142;SDS011;63667;49.046;8.468;2023-04-29T08:04:47;8.10;;;5.60;;
142;SDS011;63667;49.046;8.468;2023-04-29T08:07:15;6.40;;;5.20;;
142;SDS011;63667;49.046;8.468;2023-04-29T08:09:43;5.23;;;4.63;;
142;SDS011;63667;49.046;8.468;2023-04-29T08:12:11;7.20;;;5.07;;
142;SDS011;63667;49.046;8.468;2023-04-29T08:14:38;9.13;;;4.73;;
142;SDS011;63667;49.046;8.468;2023-04-29T08:17:06;6.77;;;5.07;;
142;SDS011;63667;49.046;8.468;2023-04-29T08:19:33;6.80;;;4.60;;
142;SDS011;63667;49.046;8.468;2023-04-29T08:22:00;9.43;;;5.33;;
142;SDS011;63667;49.046;8.468;2023-04-29T08:24:31;7.43;;;4.70;;
142;SDS011;63667;49.046;8.468;2023-04-29T08:26:59;5.83;;;4.47;;
142;SDS011;63667;49.046;8.468;2023-04-29T08:29:25;7.10;;;5.40;;
142;SDS011;63667;49.046;8.468;2023-04-29T08:31:52;8.20;;;5.40;;
142;SDS011;63667;49.046;8.468;2023-04-29T08:34:18;7.37;;;5.30;;
142;SDS011;63667;49.046;8.468;2023-04-29T08:36:45;8.43;;;4.87;;
142;SDS011;63667;49.046;8.468;2023-04-29T08:39:12;8.87;;;5.30;;
142;SDS011;63667;49.046;8.468;2023-04-29T08:41:39;6.07;;;4.77;;
142;SDS011;63667;49.046;8.468;2023-04-29T08:44:08;5.10;;;4.80;;
142;SDS011;63667;49.046;8.468;2023-04-29T08:46:37;7.70;;;5.03;;
142;SDS011;63667;49.046;8.468;2023-04-29T08:49:04;7.23;;;4.97;;
142;SDS011;63667;49.046;8.468;2023-04-29T08:51:32;7.50;;;4.60;;
142;SDS011;63667;49.046;8.468;2023-04-29T08:53:59;7.40;;;5.43;;
142;SDS011;63667;49.046;8.468;2023-04-29T08:56:26;15.93;;;5.23;;
142;SDS011;63667;49.046;8.468;2023-04-29T08:58:55;4.70;;;4.37;;
142;SDS011;63667;49.046;8.468;2023-04-29T09:01:24;8.30;;;4.83;;
142;SDS011;63667;49.046;8.468;2023-04-29T09:06:20;4.83;;;4.37;;
142;SDS011;63667;49.046;8.468;2023-04-29T09:08:47;5.90;;;4.60;;
142;SDS011;63667;49.046;8.468;2023-04-29T09:11:15;7.13;;;4.53;;
142;SDS011;63667;49.046;8.468;2023-04-29T09:13:43;4.93;;;4.50;;
142;SDS011;63667;49.046;8.468;2023-04-29T09:16:10;6.00;;;4.43;;
142;SDS011;63667;49.046;8.468;2023-04-29T09:18:41;5.97;;;4.67;;
142;SDS011;63667;49.046;8.468;2023-04-29T09:21:12;6.00;;;4.90;;
142;SDS011;63667;49.046;8.468;2023-04-29T09:23:39;6.33;;;4.53;;
142;SDS011;63667;49.046;8.468;2023-04-29T09:26:07;5.90;;;4.90;;
142;SDS011;63667;49.046;8.468;2023-04-29T09:28:34;6.13;;;4.47;;
142;SDS011;63667;49.046;8.468;2023-04-29T09:31:01;5.60;;;4.60;;
142;SDS011;63667;49.046;8.468;2023-04-29T09:33:51;6.37;;;4.60;;
142;SDS011;63667;49.046;8.468;2023-04-29T09:36:38;7.00;;;5.23;;
142;SDS011;63667;49.046;8.468;2023-04-29T09:39:06;7.10;;;5.23;;
142;SDS011;63667;49.046;8.468;2023-04-29T09:41:37;6.60;;;5.03;;
142;SDS011;63667;49.046;8.468;2023-04-29T09:44:08;6.67;;;4.90;;
142;SDS011;63667;49.046;8.468;2023-04-29T09:46:35;6.73;;;4.73;;
142;SDS011;63667;49.046;8.468;2023-04-29T09:49:03;8.83;;;4.90;;
142;SDS011;63667;49.046;8.468;2023-04-29T09:51:30;6.07;;;4.77;;
142;SDS011;63667;49.046;8.468;2023-04-29T09:53:58;5.37;;;4.40;;
142;SDS011;63667;49.046;8.468;2023-04-29T09:56:27;4.40;;;4.20;;
142;SDS011;63667;49.046;8.468;2023-04-29T09:58:55;5.50;;;4.80;;
142;SDS011;63667;49.046;8.468;2023-04-29T10:01:33;16.53;;;10.33;;
142;SDS011;63667;49.046;8.468;2023-04-29T10:04:01;22.13;;;12.27;;
142;SDS011;63667;49.046;8.468;2023-04-29T10:06:29;22.27;;;12.97;;
142;SDS011;63667;49.046;8.468;2023-04-29T10:08:56;23.00;;;11.90;;
142;SDS011;63667;49.046;8.468;2023-04-29T10:11:25;22.47;;;12.03;;
142;SDS011;63667;49.046;8.468;2023-04-29T10:13:53;20.77;;;11.57;;
142;SDS011;63667;49.046;8.468;2023-04-29T10:18:54;19.60;;;10.43;;
142;SDS011;63667;49.046;8.468;2023-04-29T10:21:28;20.97;;;10.93;;
142;SDS011;63667;49.046;8.468;2023-04-29T10:23:56;16.60;;;9.70;;
142;SDS011;63667;49.046;8.468;2023-04-29T10:26:26;21.40;;;11.20;;
142;SDS011;63667;49.046;8.468;2023-04-29T10:29:02;22.37;;;10.10;;
142;SDS011;63667;49.046;8.468;2023-04-29T10:31:29;19.80;;;10.90;;
142;SDS011;63667;49.046;8.468;2023-04-29T10:34:17;17.33;;;9.17;;
142;SDS011;63667;49.046;8.468;2023-04-29T10:36:44;22.03;;;9.50;;
142;SDS011;63667;49.046;8.468;2023-04-29T10:39:13;16.10;;;9.27;;
142;SDS011;63667;49.046;8.468;2023-04-29T10:41:47;19.47;;;10.20;;
142;SDS011;63667;49.046;8.468;2023-04-29T10:44:15;18.13;;;9.90;;
142;SDS011;63667;49.046;8.468;2023-04-29T10:46:41;17.40;;;9.20;;
142;SDS011;63667;49.046;8.468;2023-04-29T10:49:07;18.93;;;8.30;;
142;SDS011;63667;49.046;8.468;2023-04-29T10:51:39;13.17;;;8.37;;
142;SDS011;63667;49.046;8.468;2023-04-29T10:54:13;16.53;;;9.70;;
142;SDS011;63667;49.046;8.468;2023-04-29T10:56:52;14.67;;;9.17;;
142;SDS011;63667;49.046;8.468;2023-04-29T11:02:27;13.80;;;9.00;;
142;SDS011;63667;49.046;8.468;2023-04-29T11:05:14;16.00;;;9.23;;
142;SDS011;63667;49.046;8.468;2023-04-29T11:07:42;18.77;;;9.70;;
142;SDS011;63667;49.046;8.468;2023-04-29T11:10:11;13.93;;;8.83;;
142;SDS011;63667;49.046;8.468;2023-04-29T11:15:49;12.30;;;7.90;;
142;SDS011;63667;49.046;8.468;2023-04-29T11:18:16;14.27;;;8.67;;
142;SDS011;63667;49.046;8.468;2023-04-29T11:23:38;15.80;;;9.80;;
142;SDS011;63667;49.046;8.468;2023-04-29T11:26:33;13.70;;;8.20;;
142;SDS011;63667;49.046;8.468;2023-04-29T11:29:00;13.40;;;7.60;;
142;SDS011;63667;49.046;8.468;2023-04-29T11:31:29;13.33;;;7.77;;
142;SDS011;63667;49.046;8.468;2023-04-29T11:33:56;12.83;;;7.50;;
142;SDS011;63667;49.046;8.468;2023-04-29T11:36:23;14.87;;;7.90;;
142;SDS011;63667;49.046;8.468;2023-04-29T11:38:52;13.67;;;7.87;;
142;SDS011;63667;49.046;8.468;2023-04-29T11:41:19;14.10;;;7.83;;
142;SDS011;63667;49.046;8.468;2023-04-29T11:43:53;11.07;;;7.70;;
142;SDS011;63667;49.046;8.468;2023-04-29T11:46:24;13.70;;;7.83;;
142;SDS011;63667;49.046;8.468;2023-04-29T11:48:53;12.90;;;7.60;;
142;SDS011;63667;49.046;8.468;2023-04-29T11:51:21;13.57;;;7.77;;
142;SDS011;63667;49.046;8.468;2023-04-29T11:53:49;10.70;;;7.10;;
142;SDS011;63667;49.046;8.468;2023-04-29T11:56:19;12.33;;;7.90;;
142;SDS011;63667;49.046;8.468;2023-04-29T11:58:49;10.20;;;7.20;;
142;SDS011;63667;49.046;8.468;2023-04-29T12:01:19;11.03;;;6.60;;
142;SDS011;63667;49.046;8.468;2023-04-29T12:03:47;9.27;;;6.00;;
142;SDS011;63667;49.046;8.468;2023-04-29T12:06:15;11.00;;;7.03;;
142;SDS011;63667;49.046;8.468;2023-04-29T12:08:45;10.30;;;7.00;;
142;SDS011;63667;49.046;8.468;2023-04-29T12:11:12;10.47;;;7.20;;
142;SDS011;63667;49.046;8.468;2023-04-29T12:13:39;12.87;;;7.40;;
142;SDS011;63667;49.046;8.468;2023-04-29T12:16:07;13.23;;;7.07;;
142;SDS011;63667;49.046;8.468;2023-04-29T12:18:35;12.30;;;6.87;;
142;SDS011;63667;49.046;8.468;2023-04-29T12:21:03;11.47;;;7.00;;
142;SDS011;63667;49.046;8.468;2023-04-29T12:23:30;11.13;;;7.03;;
142;SDS011;63667;49.046;8.468;2023-04-29T12:25:57;11.03;;;6.70;;
142;SDS011;63667;49.046;8.468;2023-04-29T12:28:25;12.17;;;7.17;;
142;SDS011;63667;49.046;8.468;2023-04-29T12:30:52;10.90;;;6.53;;
142;SDS011;63667;49.046;8.468;2023-04-29T12:33:21;13.27;;;6.30;;
142;SDS011;63667;49.046;8.468;2023-04-29T12:35:53;9.53;;;6.60;;
142;SDS011;63667;49.046;8.468;2023-04-29T12:38:25;12.00;;;6.80;;
142;SDS011;63667;49.046;8.468;2023-04-29T12:40:54;12.57;;;7.87;;
142;SDS011;63667;49.046;8.468;2023-04-29T12:43:29;12.03;;;7.60;;
142;SDS011;63667;49.046;8.468;2023-04-29T12:46:15;12.47;;;7.17;;
142;SDS011;63667;49.046;8.468;2023-04-29T12:48:42;8.70;;;6.40;;
142;SDS011;63667;49.046;8.468;2023-04-29T12:51:10;12.53;;;7.37;;
142;SDS011;63667;49.046;8.468;2023-04-29T12:53:38;12.80;;;6.97;;
142;SDS011;63667;49.046;8.468;2023-04-29T12:56:06;11.23;;;6.90;;
142;SDS011;63667;49.046;8.468;2023-04-29T12:58:34;9.27;;;6.47;;
142;SDS011;63667;49.046;8.468;2023-04-29T13:01:01;8.47;;;6.27;;
142;SDS011;63667;49.046;8.468;2023-04-29T13:03:29;9.47;;;6.43;;
142;SDS011;63667;49.046;8.468;2023-04-29T13:05:57;10.50;;;6.47;;
142;SDS011;63667;49.046;8.468;2023-04-29T13:08:26;11.70;;;7.43;;
142;SDS011;63667;49.046;8.468;2023-04-29T13:10:53;12.13;;;7.30;;
142;SDS011;63667;49.046;8.468;2023-04-29T13:13:20;9.73;;;7.17;;
142;SDS011;63667;49.046;8.468;2023-04-29T13:15:48;12.60;;;6.97;;
142;SDS011;63667;49.046;8.468;2023-04-29T13:18:15;9.40;;;6.97;;
142;SDS011;63667;49.046;8.468;2023-04-29T13:20:43;10.17;;;6.37;;
142;SDS011;63667;49.046;8.468;2023-04-29T13:23:10;9.00;;;6.07;;
142;SDS011;63667;49.046;8.468;2023-04-29T13:25:38;11.83;;;6.27;;
142;SDS011;63667;49.046;8.468;2023-04-29T13:28:05;11.23;;;6.43;;
142;SDS011;63667;49.046;8.468;2023-04-29T13:30:33;9.73;;;6.20;;
142;SDS011;63667;49.046;8.468;2023-04-29T13:33:01;10.93;;;6.80;;
142;SDS011;63667;49.046;8.468;2023-04-29T13:35:30;8.83;;;6.20;;
142;SDS011;63667;49.046;8.468;2023-04-29T13:38:01;12.20;;;6.10;;
142;SDS011;63667;49.046;8.468;2023-04-29T13:40:30;12.47;;;6.43;;
142;SDS011;63667;49.046;8.468;2023-04-29T13:42:57;11.20;;;6.13;;
142;SDS011;63667;49.046;8.468;2023-04-29T13:45:23;11.00;;;6.97;;
142;SDS011;63667;49.046;8.468;2023-04-29T13:47:51;12.97;;;6.73;;
142;SDS011;63667;49.046;8.468;2023-04-29T13:50:18;8.93;;;6.40;;
142;SDS011;63667;49.046;8.468;2023-04-29T13:52:46;9.70;;;6.50;;
142;SDS011;63667;49.046;8.468;2023-04-29T13:55:15;8.57;;;5.60;;
142;SDS011;63667;49.046;8.468;2023-04-29T13:57:48;8.30;;;6.53;;
142;SDS011;63667;49.046;8.468;2023-04-29T14:00:15;8.00;;;5.80;;
142;SDS011;63667;49.046;8.468;2023-04-29T14:02:47;10.20;;;6.03;;
142;SDS011;63667;49.046;8.468;2023-04-29T14:05:14;9.70;;;6.33;;
142;SDS011;63667;49.046;8.468;2023-04-29T14:07:41;9.30;;;6.17;;
142;SDS011;63667;49.046;8.468;2023-04-29T14:10:08;10.37;;;6.33;;
142;SDS011;63667;49.046;8.468;2023-04-29T14:12:35;12.33;;;5.43;;
142;SDS011;63667;49.046;8.468;2023-04-29T14:15:06;7.70;;;5.53;;
142;SDS011;63667;49.046;8.468;2023-04-29T14:17:32;9.87;;;6.00;;
142;SDS011;63667;49.046;8.468;2023-04-29T14:19:59;8.57;;;6.17;;
142;SDS011;63667;49.046;8.468;2023-04-29T14:22:26;9.43;;;6.13;;
142;SDS011;63667;49.046;8.468;2023-04-29T14:24:54;11.13;;;6.23;;
142;SDS011;63667;49.046;8.468;2023-04-29T14:27:22;9.00;;;5.90;;
142;SDS011;63667;49.046;8.468;2023-04-29T14:29:49;9.90;;;5.77;;
142;SDS011;63667;49.046;8.468;2023-04-29T14:32:16;9.10;;;5.97;;
142;SDS011;63667;49.046;8.468;2023-04-29T14:34:42;9.63;;;6.00;;
142;SDS011;63667;49.046;8.468;2023-04-29T14:37:10;8.30;;;5.23;;
142;SDS011;63667;49.046;8.468;2023-04-29T14:39:36;9.57;;;6.57;;
142;SDS011;63667;49.046;8.468;2023-04-29T14:42:03;11.07;;;6.90;;
142;SDS011;63667;49.046;8.468;2023-04-29T14:44:29;11.20;;;6.03;;
142;SDS011;63667;49.046;8.468;2023-04-29T14:46:56;8.47;;;5.40;;
142;SDS011;63667;49.046;8.468;2023-04-29T14:49:24;8.27;;;5.60;;
142;SDS011;63667;49.046;8.468;2023-04-29T14:51:51;8.20;;;5.73;;
142;SDS011;63667;49.046;8.468;2023-04-29T14:54:17;9.10;;;5.70;;
142;SDS011;63667;49.046;8.468;2023-04-29T14:56:43;8.50;;;5.27;;
142;SDS011;63667;49.046;8.468;2023-04-29T14:59:09;8.20;;;4.90;;
142;SDS011;63667;49.046;8.468;2023-04-29T15:01:36;7.73;;;5.73;;
142;SDS011;63667;49.046;8.468;2023-04-29T15:04:04;7.77;;;5.40;;
142;SDS011;63667;49.046;8.468;2023-04-29T15:06:30;9.00;;;5.50;;
142;SDS011;63667;49.046;8.468;2023-04-29T15:08:56;8.03;;;5.43;;
142;SDS011;63667;49.046;8.468;2023-04-29T15:11:23;7.03;;;5.33;;
142;SDS011;63667;49.046;8.468;2023-04-29T15:13:50;7.53;;;5.33;;
142;SDS011;63667;49.046;8.468;2023-04-29T15:16:16;9.17;;;5.77;;
142;SDS011;63667;49.046;8.468;2023-04-29T15:18:43;9.90;;;6.20;;
142;SDS011;63667;49.046;8.468;2023-04-29T15:21:09;7.63;;;5.57;;
142;SDS011;63667;49.046;8.468;2023-04-29T15:23:35;10.33;;;5.37;;
142;SDS011;63667;49.046;8.468;2023-04-29T15:26:02;10.40;;;6.33;;
142;SDS011;63667;49.046;8.468;2023-04-29T15:28:28;7.90;;;5.83;;
142;SDS011;63667;49.046;8.468;2023-04-29T15:30:54;8.37;;;6.00;;
142;SDS011;63667;49.046;8.468;2023-04-29T15:33:20;9.37;;;6.90;;
142;SDS011;63667;49.046;8.468;2023-04-29T15:35:46;10.60;;;7.00;;
142;SDS011;63667;49.046;8.468;2023-04-29T15:38:12;9.20;;;6.23;;
142;SDS011;63667;49.046;8.468;2023-04-29T15:40:40;12.20;;;6.67;;